sensor_id;sensor_type;location;lat;lon;timestamp;temperature;humidity
62581;DHT22;48640;48.770;9.148;2023-04-19T00:01:51;11.00;99.70
62581;DHT22;48640;48.770;9.148;2023-04-19T00:04:17;10.60;99.50
62581;DHT22;48640;48.770;9.148;2023-04-19T00:06:44;10.80;99.40
62581;DHT22;48640;48.770;9.148;2023-04-19T00:09:13;10.60;99.30
62581;DHT22;48640;48.770;9.148;2023-04-19T00:11:40;10.70;99.50
62581;DHT22;48640;48.770;9.148;2023-04-19T00:14:06;10.50;99.60
62581;DHT22;48640;48.770;9.148;2023-04-19T00:16:33;10.70;99.80
62581;DHT22;48640;48.770;9.148;2023-04-19T00:19:00;10.70;99.70
62581;DHT22;48640;48.770;9.148;2023-04-19T00:21:27;10.90;99.90
62581;DHT22;48640;48.770;9.148;2023-04-19T00:23:54;10.60;99.90
62581;DHT22;48640;48.770;9.148;2023-04-19T00:26:22;10.80;99.90
62581;DHT22;48640;48.770;9.148;2023-04-19T00:28:48;10.60;99.80
62581;DHT22;48640;48.770;9.148;2023-04-19T00:31:15;10.90;99.90
62581;DHT22;48640;48.770;9.148;2023-04-19T00:33:42;10.50;99.90
62581;DHT22;48640;48.770;9.148;2023-04-19T00:36:09;10.40;99.90
62581;DHT22;48640;48.770;9.148;2023-04-19T00:38:36;10.60;99.90
62581;DHT22;48640;48.770;9.148;2023-04-19T00:41:02;10.40;99.90
62581;DHT22;48640;48.770;9.148;2023-04-19T00:43:30;10.40;99.90
62581;DHT22;48640;48.770;9.148;2023-04-19T00:45:57;10.50;99.90
62581;DHT22;48640;48.770;9.148;2023-04-19T00:48:24;10.50;99.90
62581;DHT22;48640;48.770;9.148;2023-04-19T00:50:51;10.80;99.90
62581;DHT22;48640;48.770;9.148;2023-04-19T00:53:18;10.70;99.90
62581;DHT22;48640;48.770;9.148;2023-04-19T00:55:45;10.20;99.90
62581;DHT22;48640;48.770;9.148;2023-04-19T00:58:13;10.80;99.90
62581;DHT22;48640;48.770;9.148;2023-04-19T01:00:41;10.50;99.90
62581;DHT22;48640;48.770;9.148;2023-04-19T01:03:08;10.30;99.90
62581;DHT22;48640;48.770;9.148;2023-04-19T01:05:35;10.20;99.90
62581;DHT22;48640;48.770;9.148;2023-04-19T01:08:01;10.40;99.90
62581;DHT22;48640;48.770;9.148;2023-04-19T01:10:28;10.60;99.90
62581;DHT22;48640;48.770;9.148;2023-04-19T01:12:55;10.90;99.90
62581;DHT22;48640;48.770;9.148;2023-04-19T01:15:22;10.50;99.90
62581;DHT22;48640;48.770;9.148;2023-04-19T01:17:50;10.60;99.90
62581;DHT22;48640;48.770;9.148;2023-04-19T01:20:17;10.20;99.90
62581;DHT22;48640;48.770;9.148;2023-04-19T01:22:45;10.70;99.90
62581;DHT22;48640;48.770;9.148;2023-04-19T01:25:12;10.00;99.90
62581;DHT22;48640;48.770;9.148;2023-04-19T01:27:39;10.50;99.90
62581;DHT22;48640;48.770;9.148;2023-04-19T01:30:06;10.50;99.90
62581;DHT22;48640;48.770;9.148;2023-04-19T01:32:33;10.60;99.90
62581;DHT22;48640;48.770;9.148;2023-04-19T01:35:00;10.30;99.90
62581;DHT22;48640;48.770;9.148;2023-04-19T01:37:27;10.40;99.90
62581;DHT22;48640;48.770;9.148;2023-04-19T01:39:55;10.40;99.90
62581;DHT22;48640;48.770;9.148;2023-04-19T01:42:22;10.10;99.90
62581;DHT22;48640;48.770;9.148;2023-04-19T01:44:49;10.60;99.90
62581;DHT22;48640;48.770;9.148;2023-04-19T01:47:15;10.00;99.90
62581;DHT22;48640;48.770;9.148;2023-04-19T01:49:42;10.20;99.90
62581;DHT22;48640;48.770;9.148;2023-04-19T01:52:09;10.20;99.90
62581;DHT22;48640;48.770;9.148;2023-04-19T01:54:36;10.00;99.90
62581;DHT22;48640;48.770;9.148;2023-04-19T01:57:04;10.30;99.90
62581;DHT22;48640;48.770;9.148;2023-04-19T01:59:30;10.20;99.90
62581;DHT22;48640;48.770;9.148;2023-04-19T02:01:57;10.40;99.90
62581;DHT22;48640;48.770;9.148;2023-04-19T02:04:24;10.50;99.90
62581;DHT22;48640;48.770;9.148;2023-04-19T02:06:51;10.20;99.90
62581;DHT22;48640;48.770;9.148;2023-04-19T02:09:17;10.10;99.90
62581;DHT22;48640;48.770;9.148;2023-04-19T02:11:44;10.50;99.90
62581;DHT22;48640;48.770;9.148;2023-04-19T02:14:12;11.00;99.90
62581;DHT22;48640;48.770;9.148;2023-04-19T02:16:39;10.40;99.90
62581;DHT22;48640;48.770;9.148;2023-04-19T02:19:06;10.50;99.90
62581;DHT22;48640;48.770;9.148;2023-04-19T02:21:33;10.40;99.90
62581;DHT22;48640;48.770;9.148;2023-04-19T02:24:00;10.60;99.90
62581;DHT22;48640;48.770;9.148;2023-04-19T02:26:27;10.50;99.90
62581;DHT22;48640;48.770;9.148;2023-04-19T02:28:54;10.60;99.90
62581;DHT22;48640;48.770;9.148;2023-04-19T02:31:22;10.20;99.90
62581;DHT22;48640;48.770;9.148;2023-04-19T02:33:48;10.70;99.90
62581;DHT22;48640;48.770;9.148;2023-04-19T02:36:15;10.30;99.90
62581;DHT22;48640;48.770;9.148;2023-04-19T02:38:42;10.70;99.90
62581;DHT22;48640;48.770;9.148;2023-04-19T02:41:09;10.40;99.90
62581;DHT22;48640;48.770;9.148;2023-04-19T02:43:36;10.10;99.90
62581;DHT22;48640;48.770;9.148;2023-04-19T02:46:02;9.90;99.90
62581;DHT22;48640;48.770;9.148;2023-04-19T02:48:31;10.40;99.90
62581;DHT22;48640;48.770;9.148;2023-04-19T02:50:57;10.10;99.90
62581;DHT22;48640;48.770;9.148;2023-04-19T02:53:24;10.20;99.90
62581;DHT22;48640;48.770;9.148;2023-04-19T02:55:51;10.20;99.90
62581;DHT22;48640;48.770;9.148;2023-04-19T02:58:18;10.00;99.90
62581;DHT22;48640;48.770;9.148;2023-04-19T03:00:44;10.40;99.90
62581;DHT22;48640;48.770;9.148;2023-04-19T03:03:11;10.60;99.90
62581;DHT22;48640;48.770;9.148;2023-04-19T03:05:39;10.50;99.90
62581;DHT22;48640;48.770;9.148;2023-04-19T03:08:06;10.30;99.90
62581;DHT22;48640;48.770;9.148;2023-04-19T03:10:35;10.40;99.90
62581;DHT22;48640;48.770;9.148;2023-04-19T03:13:02;10.40;99.90
62581;DHT22;48640;48.770;9.148;2023-04-19T03:15:28;10.50;99.90
62581;DHT22;48640;48.770;9.148;2023-04-19T03:17:55;10.50;99.90
62581;DHT22;48640;48.770;9.148;2023-04-19T03:20:22;10.10;99.90
62581;DHT22;48640;48.770;9.148;2023-04-19T03:22:50;10.40;99.90
62581;DHT22;48640;48.770;9.148;2023-04-19T03:25:17;10.60;99.90
62581;DHT22;48640;48.770;9.148;2023-04-19T03:27:44;10.40;99.90
62581;DHT22;48640;48.770;9.148;2023-04-19T03:30:13;10.20;99.90
62581;DHT22;48640;48.770;9.148;2023-04-19T03:32:39;10.20;99.90
62581;DHT22;48640;48.770;9.148;2023-04-19T03:35:07;10.00;99.90
62581;DHT22;48640;48.770;9.148;2023-04-19T03:37:34;10.50;99.90
62581;DHT22;48640;48.770;9.148;2023-04-19T03:40:02;10.30;99.90
62581;DHT22;48640;48.770;9.148;2023-04-19T03:42:29;10.40;99.90
62581;DHT22;48640;48.770;9.148;2023-04-19T03:44:56;10.00;99.90
62581;DHT22;48640;48.770;9.148;2023-04-19T03:47:22;10.10;99.90
62581;DHT22;48640;48.770;9.148;2023-04-19T03:49:49;9.90;99.90
62581;DHT22;48640;48.770;9.148;2023-04-19T03:52:16;10.60;99.90
62581;DHT22;48640;48.770;9.148;2023-04-19T03:54:43;10.20;99.90
62581;DHT22;48640;48.770;9.148;2023-04-19T03:57:11;9.90;99.90
62581;DHT22;48640;48.770;9.148;2023-04-19T03:59:39;10.00;99.90
62581;DHT22;48640;48.770;9.148;2023-04-19T04:02:05;9.70;99.90
62581;DHT22;48640;48.770;9.148;2023-04-19T04:04:32;10.20;99.90
62581;DHT22;48640;48.770;9.148;2023-04-19T04:06:59;9.80;99.90
62581;DHT22;48640;48.770;9.148;2023-04-19T04:09:26;9.80;99.90
62581;DHT22;48640;48.770;9.148;2023-04-19T04:11:53;9.70;99.90
62581;DHT22;48640;48.770;9.148;2023-04-19T04:14:22;9.70;99.90
62581;DHT22;48640;48.770;9.148;2023-04-19T04:16:49;10.10;99.90
62581;DHT22;48640;48.770;9.148;2023-04-19T04:19:16;9.80;99.90
62581;DHT22;48640;48.770;9.148;2023-04-19T04:21:43;10.10;99.90
62581;DHT22;48640;48.770;9.148;2023-04-19T04:24:10;9.80;99.90
62581;DHT22;48640;48.770;9.148;2023-04-19T04:26:37;9.90;99.90
62581;DHT22;48640;48.770;9.148;2023-04-19T04:29:05;10.20;99.90
62581;DHT22;48640;48.770;9.148;2023-04-19T04:31:34;10.00;99.90
62581;DHT22;48640;48.770;9.148;2023-04-19T04:34:01;9.80;99.90
62581;DHT22;48640;48.770;9.148;2023-04-19T04:36:28;9.80;99.90
62581;DHT22;48640;48.770;9.148;2023-04-19T04:38:55;10.20;99.90
62581;DHT22;48640;48.770;9.148;2023-04-19T04:41:22;10.40;99.90
62581;DHT22;48640;48.770;9.148;2023-04-19T04:43:50;10.10;99.90
62581;DHT22;48640;48.770;9.148;2023-04-19T04:46:18;10.30;99.90
62581;DHT22;48640;48.770;9.148;2023-04-19T04:48:46;10.10;99.90
62581;DHT22;48640;48.770;9.148;2023-04-19T04:51:13;9.80;99.90
62581;DHT22;48640;48.770;9.148;2023-04-19T04:53:39;9.90;99.90
62581;DHT22;48640;48.770;9.148;2023-04-19T04:56:06;10.00;99.90
62581;DHT22;48640;48.770;9.148;2023-04-19T04:58:33;10.20;99.90
62581;DHT22;48640;48.770;9.148;2023-04-19T05:01:00;9.80;99.90
62581;DHT22;48640;48.770;9.148;2023-04-19T05:03:27;10.30;99.90
62581;DHT22;48640;48.770;9.148;2023-04-19T05:05:55;9.90;99.90
62581;DHT22;48640;48.770;9.148;2023-04-19T05:08:22;10.20;99.90
62581;DHT22;48640;48.770;9.148;2023-04-19T05:10:49;10.00;99.90
62581;DHT22;48640;48.770;9.148;2023-04-19T05:13:15;10.10;99.90
62581;DHT22;48640;48.770;9.148;2023-04-19T05:15:42;9.80;99.90
62581;DHT22;48640;48.770;9.148;2023-04-19T05:18:09;10.00;99.90
62581;DHT22;48640;48.770;9.148;2023-04-19T05:20:36;9.90;99.90
62581;DHT22;48640;48.770;9.148;2023-04-19T05:23:04;10.30;99.90
62581;DHT22;48640;48.770;9.148;2023-04-19T05:25:30;10.20;99.90
62581;DHT22;48640;48.770;9.148;2023-04-19T05:27:57;9.70;99.90
62581;DHT22;48640;48.770;9.148;2023-04-19T05:30:24;9.80;99.90
62581;DHT22;48640;48.770;9.148;2023-04-19T05:32:51;10.10;99.90
62581;DHT22;48640;48.770;9.148;2023-04-19T05:35:18;10.30;99.90
62581;DHT22;48640;48.770;9.148;2023-04-19T05:37:45;10.20;99.90
62581;DHT22;48640;48.770;9.148;2023-04-19T05:40:13;9.70;99.90
62581;DHT22;48640;48.770;9.148;2023-04-19T05:42:40;9.90;99.90
62581;DHT22;48640;48.770;9.148;2023-04-19T05:45:08;9.90;99.90
62581;DHT22;48640;48.770;9.148;2023-04-19T05:47:34;10.60;99.90
62581;DHT22;48640;48.770;9.148;2023-04-19T05:50:01;10.00;99.90
62581;DHT22;48640;48.770;9.148;2023-04-19T05:52:28;10.00;99.90
62581;DHT22;48640;48.770;9.148;2023-04-19T05:54:55;9.70;99.90
62581;DHT22;48640;48.770;9.148;2023-04-19T05:57:23;10.40;99.90
62581;DHT22;48640;48.770;9.148;2023-04-19T05:59:50;9.90;99.90
62581;DHT22;48640;48.770;9.148;2023-04-19T06:02:19;10.00;99.90
62581;DHT22;48640;48.770;9.148;2023-04-19T06:04:45;10.10;99.90
62581;DHT22;48640;48.770;9.148;2023-04-19T06:07:15;10.00;99.90
62581;DHT22;48640;48.770;9.148;2023-04-19T06:09:42;10.60;99.90
62581;DHT22;48640;48.770;9.148;2023-04-19T06:12:09;10.00;99.90
62581;DHT22;48640;48.770;9.148;2023-04-19T06:14:37;10.60;99.90
62581;DHT22;48640;48.770;9.148;2023-04-19T06:17:04;10.40;99.90
62581;DHT22;48640;48.770;9.148;2023-04-19T06:19:31;10.20;99.90
62581;DHT22;48640;48.770;9.148;2023-04-19T06:21:58;10.40;99.60
62581;DHT22;48640;48.770;9.148;2023-04-19T06:24:26;10.80;99.20
62581;DHT22;48640;48.770;9.148;2023-04-19T06:26:52;10.60;99.30
62581;DHT22;48640;48.770;9.148;2023-04-19T06:29:19;10.50;98.90
62581;DHT22;48640;48.770;9.148;2023-04-19T06:31:49;10.50;98.80
62581;DHT22;48640;48.770;9.148;2023-04-19T06:34:16;10.40;99.00
62581;DHT22;48640;48.770;9.148;2023-04-19T06:36:43;10.50;99.40
62581;DHT22;48640;48.770;9.148;2023-04-19T06:39:09;10.60;98.90
62581;DHT22;48640;48.770;9.148;2023-04-19T06:41:36;10.90;98.50
62581;DHT22;48640;48.770;9.148;2023-04-19T06:44:03;10.60;98.30
62581;DHT22;48640;48.770;9.148;2023-04-19T06:46:30;11.10;98.30
62581;DHT22;48640;48.770;9.148;2023-04-19T06:48:58;10.80;97.80
62581;DHT22;48640;48.770;9.148;2023-04-19T06:51:25;10.70;97.90
62581;DHT22;48640;48.770;9.148;2023-04-19T06:53:52;11.20;98.10
62581;DHT22;48640;48.770;9.148;2023-04-19T06:56:38;10.80;97.70
62581;DHT22;48640;48.770;9.148;2023-04-19T06:59:05;10.70;97.40
62581;DHT22;48640;48.770;9.148;2023-04-19T07:01:32;11.40;98.00
62581;DHT22;48640;48.770;9.148;2023-04-19T07:04:00;11.30;97.70
62581;DHT22;48640;48.770;9.148;2023-04-19T07:06:27;11.00;97.50
62581;DHT22;48640;48.770;9.148;2023-04-19T07:08:54;11.10;97.20
62581;DHT22;48640;48.770;9.148;2023-04-19T07:11:20;11.30;97.70
62581;DHT22;48640;48.770;9.148;2023-04-19T07:13:47;11.30;97.70
62581;DHT22;48640;48.770;9.148;2023-04-19T07:16:14;11.20;96.50
62581;DHT22;48640;48.770;9.148;2023-04-19T07:18:41;11.90;96.90
62581;DHT22;48640;48.770;9.148;2023-04-19T07:21:09;11.80;96.60
62581;DHT22;48640;48.770;9.148;2023-04-19T07:23:36;12.10;96.40
62581;DHT22;48640;48.770;9.148;2023-04-19T07:26:04;11.80;96.00
62581;DHT22;48640;48.770;9.148;2023-04-19T07:28:30;11.70;95.50
62581;DHT22;48640;48.770;9.148;2023-04-19T07:30:57;12.00;96.10
62581;DHT22;48640;48.770;9.148;2023-04-19T07:33:25;12.30;95.30
62581;DHT22;48640;48.770;9.148;2023-04-19T07:35:52;12.20;94.70
62581;DHT22;48640;48.770;9.148;2023-04-19T07:38:20;12.20;94.70
62581;DHT22;48640;48.770;9.148;2023-04-19T07:40:47;12.20;94.80
62581;DHT22;48640;48.770;9.148;2023-04-19T07:43:14;12.20;95.00
62581;DHT22;48640;48.770;9.148;2023-04-19T07:45:41;12.50;94.00
62581;DHT22;48640;48.770;9.148;2023-04-19T07:48:10;13.00;94.40
62581;DHT22;48640;48.770;9.148;2023-04-19T07:50:37;12.90;93.80
62581;DHT22;48640;48.770;9.148;2023-04-19T07:53:04;13.50;92.30
62581;DHT22;48640;48.770;9.148;2023-04-19T07:55:32;13.50;92.10
62581;DHT22;48640;48.770;9.148;2023-04-19T07:58:00;13.50;92.10
62581;DHT22;48640;48.770;9.148;2023-04-19T08:00:27;14.00;91.50
62581;DHT22;48640;48.770;9.148;2023-04-19T08:02:56;14.20;91.10
62581;DHT22;48640;48.770;9.148;2023-04-19T08:05:22;14.60;90.40
62581;DHT22;48640;48.770;9.148;2023-04-19T08:07:50;15.60;88.50
62581;DHT22;48640;48.770;9.148;2023-04-19T08:10:18;16.80;84.10
62581;DHT22;48640;48.770;9.148;2023-04-19T08:12:46;17.60;78.00
62581;DHT22;48640;48.770;9.148;2023-04-19T08:15:14;18.10;74.80
62581;DHT22;48640;48.770;9.148;2023-04-19T08:17:41;17.90;74.60
62581;DHT22;48640;48.770;9.148;2023-04-19T08:20:09;18.30;73.60
62581;DHT22;48640;48.770;9.148;2023-04-19T08:22:36;17.50;69.30
62581;DHT22;48640;48.770;9.148;2023-04-19T08:25:04;17.80;73.30
62581;DHT22;48640;48.770;9.148;2023-04-19T08:27:32;18.90;68.60
62581;DHT22;48640;48.770;9.148;2023-04-19T08:30:00;18.50;67.30
62581;DHT22;48640;48.770;9.148;2023-04-19T08:32:27;17.40;69.00
62581;DHT22;48640;48.770;9.148;2023-04-19T08:34:53;16.70;69.30
62581;DHT22;48640;48.770;9.148;2023-04-19T08:37:21;16.10;71.20
62581;DHT22;48640;48.770;9.148;2023-04-19T08:39:49;15.00;74.50
62581;DHT22;48640;48.770;9.148;2023-04-19T08:42:15;14.60;76.20
62581;DHT22;48640;48.770;9.148;2023-04-19T08:44:43;14.70;78.20
62581;DHT22;48640;48.770;9.148;2023-04-19T08:47:12;14.30;78.20
62581;DHT22;48640;48.770;9.148;2023-04-19T08:49:40;13.90;77.40
62581;DHT22;48640;48.770;9.148;2023-04-19T08:52:09;14.20;80.50
62581;DHT22;48640;48.770;9.148;2023-04-19T08:54:38;14.10;79.80
62581;DHT22;48640;48.770;9.148;2023-04-19T08:57:05;14.00;78.40
62581;DHT22;48640;48.770;9.148;2023-04-19T08:59:33;14.30;78.40
62581;DHT22;48640;48.770;9.148;2023-04-19T09:02:00;14.40;78.50
62581;DHT22;48640;48.770;9.148;2023-04-19T09:04:28;14.20;77.70
62581;DHT22;48640;48.770;9.148;2023-04-19T09:06:55;14.10;79.80
62581;DHT22;48640;48.770;9.148;2023-04-19T09:09:24;13.50;81.30
62581;DHT22;48640;48.770;9.148;2023-04-19T09:11:51;13.40;79.80
62581;DHT22;48640;48.770;9.148;2023-04-19T09:14:20;13.50;80.50
62581;DHT22;48640;48.770;9.148;2023-04-19T09:16:47;14.00;80.90
62581;DHT22;48640;48.770;9.148;2023-04-19T09:19:16;14.40;79.30
62581;DHT22;48640;48.770;9.148;2023-04-19T09:21:45;14.60;78.30
62581;DHT22;48640;48.770;9.148;2023-04-19T09:24:16;14.80;80.10
62581;DHT22;48640;48.770;9.148;2023-04-19T09:26:52;15.30;74.20
62581;DHT22;48640;48.770;9.148;2023-04-19T09:29:19;15.50;74.50
62581;DHT22;48640;48.770;9.148;2023-04-19T09:31:55;16.60;76.10
62581;DHT22;48640;48.770;9.148;2023-04-19T09:34:23;18.40;68.20
62581;DHT22;48640;48.770;9.148;2023-04-19T09:36:54;18.40;67.80
62581;DHT22;48640;48.770;9.148;2023-04-19T09:39:30;18.70;65.50
62581;DHT22;48640;48.770;9.148;2023-04-19T09:41:58;18.00;66.10
62581;DHT22;48640;48.770;9.148;2023-04-19T09:44:25;18.10;65.70
62581;DHT22;48640;48.770;9.148;2023-04-19T09:46:53;18.10;65.20
62581;DHT22;48640;48.770;9.148;2023-04-19T09:49:21;17.60;66.90
62581;DHT22;48640;48.770;9.148;2023-04-19T09:51:51;17.50;67.90
62581;DHT22;48640;48.770;9.148;2023-04-19T09:54:21;17.80;67.50
62581;DHT22;48640;48.770;9.148;2023-04-19T09:56:48;17.90;66.80
62581;DHT22;48640;48.770;9.148;2023-04-19T09:59:15;18.20;64.40
62581;DHT22;48640;48.770;9.148;2023-04-19T10:01:44;17.80;62.70
62581;DHT22;48640;48.770;9.148;2023-04-19T10:04:12;15.60;66.70
62581;DHT22;48640;48.770;9.148;2023-04-19T10:06:46;15.20;70.70
62581;DHT22;48640;48.770;9.148;2023-04-19T10:09:13;15.30;73.40
62581;DHT22;48640;48.770;9.148;2023-04-19T10:11:47;15.40;73.30
62581;DHT22;48640;48.770;9.148;2023-04-19T10:14:15;15.50;69.90
62581;DHT22;48640;48.770;9.148;2023-04-19T10:16:42;15.50;69.90
62581;DHT22;48640;48.770;9.148;2023-04-19T10:19:11;16.50;67.70
62581;DHT22;48640;48.770;9.148;2023-04-19T10:21:39;16.50;65.60
62581;DHT22;48640;48.770;9.148;2023-04-19T10:24:07;16.50;67.00
62581;DHT22;48640;48.770;9.148;2023-04-19T10:27:07;15.40;69.60
62581;DHT22;48640;48.770;9.148;2023-04-19T10:29:57;15.20;72.40
62581;DHT22;48640;48.770;9.148;2023-04-19T10:32:26;15.80;72.90
62581;DHT22;48640;48.770;9.148;2023-04-19T10:34:53;15.90;70.70
62581;DHT22;48640;48.770;9.148;2023-04-19T10:37:25;15.50;72.10
62581;DHT22;48640;48.770;9.148;2023-04-19T10:39:51;15.60;71.80
62581;DHT22;48640;48.770;9.148;2023-04-19T10:42:20;15.80;72.30
62581;DHT22;48640;48.770;9.148;2023-04-19T10:47:46;15.50;73.50
62581;DHT22;48640;48.770;9.148;2023-04-19T10:50:15;14.80;75.50
62581;DHT22;48640;48.770;9.148;2023-04-19T10:52:42;14.90;75.40
62581;DHT22;48640;48.770;9.148;2023-04-19T10:55:14;15.00;76.30
62581;DHT22;48640;48.770;9.148;2023-04-19T10:58:03;14.60;76.30
62581;DHT22;48640;48.770;9.148;2023-04-19T11:00:31;14.80;75.90
62581;DHT22;48640;48.770;9.148;2023-04-19T11:06:18;14.60;78.00
62581;DHT22;48640;48.770;9.148;2023-04-19T11:08:47;14.40;80.40
62581;DHT22;48640;48.770;9.148;2023-04-19T11:11:14;14.30;78.60
62581;DHT22;48640;48.770;9.148;2023-04-19T11:13:41;14.40;78.10
62581;DHT22;48640;48.770;9.148;2023-04-19T11:16:08;14.50;78.30
62581;DHT22;48640;48.770;9.148;2023-04-19T11:18:35;14.80;78.70
62581;DHT22;48640;48.770;9.148;2023-04-19T11:21:02;14.90;78.90
62581;DHT22;48640;48.770;9.148;2023-04-19T11:23:30;14.70;78.90
62581;DHT22;48640;48.770;9.148;2023-04-19T11:25:57;14.50;79.40
62581;DHT22;48640;48.770;9.148;2023-04-19T11:28:24;14.10;80.00
62581;DHT22;48640;48.770;9.148;2023-04-19T11:30:51;14.20;81.10
62581;DHT22;48640;48.770;9.148;2023-04-19T11:33:19;13.50;82.00
62581;DHT22;48640;48.770;9.148;2023-04-19T11:35:49;13.40;83.40
62581;DHT22;48640;48.770;9.148;2023-04-19T11:38:16;13.30;84.70
62581;DHT22;48640;48.770;9.148;2023-04-19T11:40:44;13.00;85.20
62581;DHT22;48640;48.770;9.148;2023-04-19T11:43:11;13.20;86.30
62581;DHT22;48640;48.770;9.148;2023-04-19T11:45:38;12.80;87.00
62581;DHT22;48640;48.770;9.148;2023-04-19T11:48:05;12.80;88.30
62581;DHT22;48640;48.770;9.148;2023-04-19T11:50:34;13.20;90.00
62581;DHT22;48640;48.770;9.148;2023-04-19T11:53:12;12.30;90.40
62581;DHT22;48640;48.770;9.148;2023-04-19T11:55:43;12.20;91.50
62581;DHT22;48640;48.770;9.148;2023-04-19T11:58:25;12.70;92.30
62581;DHT22;48640;48.770;9.148;2023-04-19T12:00:53;12.50;93.10
62581;DHT22;48640;48.770;9.148;2023-04-19T12:03:21;12.40;93.10
62581;DHT22;48640;48.770;9.148;2023-04-19T12:05:52;12.60;93.10
62581;DHT22;48640;48.770;9.148;2023-04-19T12:08:29;12.30;93.50
62581;DHT22;48640;48.770;9.148;2023-04-19T12:10:58;12.20;94.70
62581;DHT22;48640;48.770;9.148;2023-04-19T12:13:25;12.50;96.00
62581;DHT22;48640;48.770;9.148;2023-04-19T12:15:52;12.30;97.00
62581;DHT22;48640;48.770;9.148;2023-04-19T12:18:19;12.00;98.70
62581;DHT22;48640;48.770;9.148;2023-04-19T12:20:47;11.90;99.90
62581;DHT22;48640;48.770;9.148;2023-04-19T12:23:15;12.30;99.90
62581;DHT22;48640;48.770;9.148;2023-04-19T12:25:44;11.50;99.90
62581;DHT22;48640;48.770;9.148;2023-04-19T12:28:13;11.60;99.90
62581;DHT22;48640;48.770;9.148;2023-04-19T12:30:40;11.80;99.90
62581;DHT22;48640;48.770;9.148;2023-04-19T12:33:08;11.60;99.90
62581;DHT22;48640;48.770;9.148;2023-04-19T12:35:34;11.50;99.90
62581;DHT22;48640;48.770;9.148;2023-04-19T12:38:02;11.70;99.90
62581;DHT22;48640;48.770;9.148;2023-04-19T12:40:29;11.60;99.90
62581;DHT22;48640;48.770;9.148;2023-04-19T12:42:56;11.20;99.90
62581;DHT22;48640;48.770;9.148;2023-04-19T12:45:24;11.20;99.90
62581;DHT22;48640;48.770;9.148;2023-04-19T12:47:51;11.30;99.90
62581;DHT22;48640;48.770;9.148;2023-04-19T12:50:18;11.00;99.90
62581;DHT22;48640;48.770;9.148;2023-04-19T12:52:45;10.90;99.90
62581;DHT22;48640;48.770;9.148;2023-04-19T12:55:12;10.90;99.90
62581;DHT22;48640;48.770;9.148;2023-04-19T12:57:38;10.80;99.90
62581;DHT22;48640;48.770;9.148;2023-04-19T13:00:07;10.90;99.90
62581;DHT22;48640;48.770;9.148;2023-04-19T13:02:36;11.40;99.90
62581;DHT22;48640;48.770;9.148;2023-04-19T13:05:03;10.80;99.90
62581;DHT22;48640;48.770;9.148;2023-04-19T13:07:30;11.40;99.90
62581;DHT22;48640;48.770;9.148;2023-04-19T13:09:57;10.90;99.90
62581;DHT22;48640;48.770;9.148;2023-04-19T13:12:24;11.00;99.90
62581;DHT22;48640;48.770;9.148;2023-04-19T13:14:51;10.80;99.90
62581;DHT22;48640;48.770;9.148;2023-04-19T13:17:18;11.10;99.90
62581;DHT22;48640;48.770;9.148;2023-04-19T13:19:46;11.40;99.90
62581;DHT22;48640;48.770;9.148;2023-04-19T13:22:13;10.80;99.90
62581;DHT22;48640;48.770;9.148;2023-04-19T13:24:40;10.90;99.90
62581;DHT22;48640;48.770;9.148;2023-04-19T13:27:07;10.80;99.90
62581;DHT22;48640;48.770;9.148;2023-04-19T13:29:34;10.90;99.90
62581;DHT22;48640;48.770;9.148;2023-04-19T13:32:01;11.30;99.90
62581;DHT22;48640;48.770;9.148;2023-04-19T13:34:28;10.80;99.90
62581;DHT22;48640;48.770;9.148;2023-04-19T13:36:56;10.70;99.90
62581;DHT22;48640;48.770;9.148;2023-04-19T13:39:23;11.30;99.90
62581;DHT22;48640;48.770;9.148;2023-04-19T13:41:50;11.30;99.90
62581;DHT22;48640;48.770;9.148;2023-04-19T13:44:17;10.90;99.90
62581;DHT22;48640;48.770;9.148;2023-04-19T13:46:44;10.90;99.90
62581;DHT22;48640;48.770;9.148;2023-04-19T13:49:11;10.80;99.90
62581;DHT22;48640;48.770;9.148;2023-04-19T13:51:37;10.80;99.90
62581;DHT22;48640;48.770;9.148;2023-04-19T13:54:06;10.90;99.90
62581;DHT22;48640;48.770;9.148;2023-04-19T13:56:32;11.10;99.90
62581;DHT22;48640;48.770;9.148;2023-04-19T13:59:00;10.90;99.90
62581;DHT22;48640;48.770;9.148;2023-04-19T14:01:26;11.30;99.90
62581;DHT22;48640;48.770;9.148;2023-04-19T14:03:53;11.30;99.90
62581;DHT22;48640;48.770;9.148;2023-04-19T14:06:20;11.40;99.90
62581;DHT22;48640;48.770;9.148;2023-04-19T14:08:47;11.00;99.90
62581;DHT22;48640;48.770;9.148;2023-04-19T14:11:15;10.70;99.90
62581;DHT22;48640;48.770;9.148;2023-04-19T14:13:42;10.80;99.70
62581;DHT22;48640;48.770;9.148;2023-04-19T14:16:09;10.90;99.90
62581;DHT22;48640;48.770;9.148;2023-04-19T14:18:36;10.80;99.00
62581;DHT22;48640;48.770;9.148;2023-04-19T14:21:03;10.80;99.30
62581;DHT22;48640;48.770;9.148;2023-04-19T14:23:31;11.10;99.90
62581;DHT22;48640;48.770;9.148;2023-04-19T14:25:58;11.20;99.40
62581;DHT22;48640;48.770;9.148;2023-04-19T14:28:26;11.10;99.30
62581;DHT22;48640;48.770;9.148;2023-04-19T14:30:53;11.60;98.70
62581;DHT22;48640;48.770;9.148;2023-04-19T14:33:20;11.60;98.30
62581;DHT22;48640;48.770;9.148;2023-04-19T14:35:47;11.60;97.60
62581;DHT22;48640;48.770;9.148;2023-04-19T14:38:13;11.70;97.20
62581;DHT22;48640;48.770;9.148;2023-04-19T14:40:40;11.50;98.10
62581;DHT22;48640;48.770;9.148;2023-04-19T14:43:07;11.70;97.50
62581;DHT22;48640;48.770;9.148;2023-04-19T14:45:35;11.50;97.50
62581;DHT22;48640;48.770;9.148;2023-04-19T14:48:02;11.50;96.90
62581;DHT22;48640;48.770;9.148;2023-04-19T14:50:29;11.40;97.80
62581;DHT22;48640;48.770;9.148;2023-04-19T14:52:55;11.20;98.40
62581;DHT22;48640;48.770;9.148;2023-04-19T14:55:24;11.30;98.00
62581;DHT22;48640;48.770;9.148;2023-04-19T14:57:51;11.30;97.70
62581;DHT22;48640;48.770;9.148;2023-04-19T15:00:19;11.30;98.00
62581;DHT22;48640;48.770;9.148;2023-04-19T15:02:47;11.70;98.10
62581;DHT22;48640;48.770;9.148;2023-04-19T15:05:14;11.20;97.30
62581;DHT22;48640;48.770;9.148;2023-04-19T15:07:41;11.20;96.80
62581;DHT22;48640;48.770;9.148;2023-04-19T15:10:08;11.20;97.20
62581;DHT22;48640;48.770;9.148;2023-04-19T15:12:35;11.50;97.40
62581;DHT22;48640;48.770;9.148;2023-04-19T15:15:03;10.90;97.60
62581;DHT22;48640;48.770;9.148;2023-04-19T15:17:30;11.30;97.90
62581;DHT22;48640;48.770;9.148;2023-04-19T15:19:58;10.90;98.30
62581;DHT22;48640;48.770;9.148;2023-04-19T15:22:25;10.80;97.90
62581;DHT22;48640;48.770;9.148;2023-04-19T15:24:51;10.60;98.00
62581;DHT22;48640;48.770;9.148;2023-04-19T15:27:18;11.10;97.90
62581;DHT22;48640;48.770;9.148;2023-04-19T15:29:46;10.60;97.50
62581;DHT22;48640;48.770;9.148;2023-04-19T15:32:12;10.60;97.60
62581;DHT22;48640;48.770;9.148;2023-04-19T15:34:40;10.40;98.20
62581;DHT22;48640;48.770;9.148;2023-04-19T15:37:08;10.60;98.20
62581;DHT22;48640;48.770;9.148;2023-04-19T15:39:35;11.10;98.30
62581;DHT22;48640;48.770;9.148;2023-04-19T15:42:02;11.00;97.70